createdAt,value
2022-08-09T00:00:00.176Z,16.84
2022-08-09T00:02:28.088Z,16.76
2022-08-09T00:05:03.654Z,16.65
2022-08-09T00:07:44.946Z,16.50
2022-08-09T00:10:14.412Z,16.41
2022-08-09T00:12:47.527Z,16.30
2022-08-09T00:15:19.026Z,16.21
2022-08-09T00:18:05.565Z,16.15
2022-08-09T00:20:32.413Z,16.03
2022-08-09T00:23:04.891Z,15.98
2022-08-09T00:25:51.649Z,16.03
2022-08-09T00:28:19.314Z,16.01
2022-08-09T00:30:50.563Z,16.00
2022-08-09T00:33:17.167Z,15.87
2022-08-09T00:35:44.073Z,15.76
2022-08-09T00:38:12.622Z,15.73
2022-08-09T00:40:52.735Z,15.61
2022-08-09T00:44:18.855Z,15.66
2022-08-09T00:46:10.963Z,15.64
2022-08-09T00:48:41.249Z,15.63
2022-08-09T00:51:16.667Z,15.64
2022-08-09T00:53:46.491Z,15.63
2022-08-09T00:56:14.082Z,15.58
2022-08-09T00:58:40.682Z,15.55
2022-08-09T01:01:16.291Z,15.47
2022-08-09T01:03:50.243Z,15.50
2022-08-09T01:06:54.666Z,15.43
2022-08-09T01:09:39.426Z,15.34
2022-08-09T01:12:17.830Z,15.37
2022-08-09T01:14:53.110Z,15.32
2022-08-09T01:17:30.547Z,15.24
2022-08-09T01:20:10.437Z,15.19
2022-08-09T01:23:00.667Z,15.21
2022-08-09T01:25:48.789Z,15.20
2022-08-09T01:28:19.122Z,15.21
2022-08-09T01:30:52.138Z,15.22
2022-08-09T01:33:24.297Z,15.06
2022-08-09T01:36:02.631Z,14.95
2022-08-09T01:38:34.534Z,14.86
2022-08-09T01:41:13.667Z,14.89
2022-08-09T01:43:51.562Z,14.86
2022-08-09T01:46:27.109Z,14.89
2022-08-09T01:49:09.431Z,14.88
2022-08-09T01:51:42.766Z,14.95
2022-08-09T01:54:11.987Z,14.92
2022-08-09T01:56:41.745Z,14.91
2022-08-09T01:59:11.134Z,14.93
2022-08-09T02:02:00.135Z,14.79
2022-08-09T02:04:29.709Z,14.65
2022-08-09T02:07:17.759Z,14.62
2022-08-09T02:10:07.278Z,14.61
2022-08-09T02:12:35.576Z,14.50
2022-08-09T02:15:06.317Z,14.37
2022-08-09T02:18:10.007Z,14.27
2022-08-09T02:20:26.214Z,14.22
2022-08-09T02:23:14.010Z,14.26
2022-08-09T02:25:52.870Z,14.22
2022-08-09T02:28:34.286Z,14.27
2022-08-09T02:31:08.826Z,14.24
2022-08-09T02:34:06.736Z,14.17
2022-08-09T02:36:33.870Z,14.06
2022-08-09T02:39:04.895Z,14.03
2022-08-09T02:41:38.980Z,14.10
2022-08-09T02:44:13.666Z,14.10
2022-08-09T02:47:00.919Z,14.10
2022-08-09T02:49:38.309Z,13.99
2022-08-09T02:52:07.789Z,13.91
2022-08-09T02:54:51.124Z,13.81
2022-08-09T02:57:23.654Z,13.80
2022-08-09T03:00:11.430Z,13.78
2022-08-09T03:02:39.881Z,13.82
2022-08-09T03:05:26.492Z,13.90
2022-08-09T03:07:55.706Z,13.94
2022-08-09T03:10:24.302Z,13.99
2022-08-09T03:12:53.164Z,13.82
2022-08-09T03:15:22.987Z,13.71
2022-08-09T03:17:58.038Z,13.69
2022-08-09T03:20:29.447Z,13.65
2022-08-09T03:22:58.312Z,13.66
2022-08-09T03:25:57.670Z,13.70
2022-08-09T03:28:17.801Z,13.72
2022-08-09T03:30:45.906Z,13.84
2022-08-09T03:33:19.100Z,13.77
2022-08-09T03:36:12.258Z,13.66
2022-08-09T03:38:37.286Z,13.70
2022-08-09T03:41:08.815Z,13.71
2022-08-09T03:43:36.473Z,13.68
2022-08-09T03:46:19.848Z,13.73
2022-08-09T03:48:55.020Z,13.62
2022-08-09T03:51:56.365Z,13.65
2022-08-09T03:54:14.689Z,13.66
2022-08-09T03:56:41.992Z,13.71
2022-08-09T03:59:17.064Z,13.74
2022-08-09T04:01:49.668Z,13.66
2022-08-09T04:04:17.418Z,13.56
2022-08-09T04:06:49.191Z,13.53
2022-08-09T04:09:44.339Z,13.55
2022-08-09T04:12:11.909Z,13.38
2022-08-09T04:15:01.902Z,13.50
2022-08-09T04:17:29.773Z,13.54
2022-08-09T04:19:56.642Z,13.61
2022-08-09T04:22:23.431Z,13.62
2022-08-09T04:24:49.947Z,13.63
2022-08-09T04:27:17.127Z,13.64
2022-08-09T04:29:50.111Z,13.68
2022-08-09T04:32:23.684Z,13.79
2022-08-09T04:35:04.995Z,13.83
2022-08-09T04:37:45.601Z,13.89
2022-08-09T04:40:19.043Z,13.98
2022-08-09T04:42:48.530Z,14.08
2022-08-09T04:45:16.630Z,14.12
2022-08-09T04:47:59.374Z,14.24
2022-08-09T04:50:33.609Z,14.41
2022-08-09T04:53:02.180Z,14.51
2022-08-09T04:55:40.585Z,14.62
2022-08-09T04:58:15.199Z,14.84
2022-08-09T05:00:43.028Z,15.02
2022-08-09T05:03:13.395Z,15.18
2022-08-09T05:06:04.346Z,15.36
2022-08-09T05:08:34.765Z,15.57
2022-08-09T05:11:02.419Z,15.80
2022-08-09T05:13:29.170Z,16.03
2022-08-09T05:16:00.124Z,16.29
2022-08-09T05:18:55.057Z,16.59
2022-08-09T05:21:23.346Z,16.93
2022-08-09T05:23:59.516Z,17.24
2022-08-09T05:26:45.375Z,17.59
2022-08-09T05:29:21.902Z,18.01
2022-08-09T05:31:57.380Z,18.35
2022-08-09T05:34:31.043Z,18.65
2022-08-09T05:37:06.104Z,18.91
2022-08-09T05:39:42.595Z,19.02
2022-08-09T05:42:18.024Z,19.29
2022-08-09T05:44:52.533Z,19.56
2022-08-09T05:47:21.765Z,19.72
2022-08-09T05:50:25.101Z,19.98
2022-08-09T05:52:38.569Z,20.27
2022-08-09T05:55:07.311Z,20.15
2022-08-09T05:57:51.115Z,20.47
2022-08-09T06:00:22.112Z,20.62
2022-08-09T06:02:48.881Z,20.82
2022-08-09T06:05:16.232Z,21.00
2022-08-09T06:07:42.914Z,21.08
2022-08-09T06:10:15.930Z,21.41
2022-08-09T06:12:44.696Z,21.67
2022-08-09T06:15:17.302Z,21.75
2022-08-09T06:17:43.740Z,21.98
2022-08-09T06:20:13.356Z,22.23
2022-08-09T06:22:45.753Z,22.23
2022-08-09T06:25:16.160Z,22.26
2022-08-09T06:27:51.330Z,22.40
2022-08-09T06:30:18.473Z,22.89
2022-08-09T06:33:00.708Z,22.78
2022-08-09T06:35:56.468Z,22.94
2022-08-09T06:38:19.249Z,23.20
2022-08-09T06:40:45.870Z,23.38
2022-08-09T06:43:13.548Z,23.28
2022-08-09T06:46:06.056Z,23.57
2022-08-09T06:48:30.964Z,23.59
2022-08-09T06:50:59.819Z,24.02
2022-08-09T06:53:26.400Z,24.61
2022-08-09T06:55:53.249Z,24.29
2022-08-09T07:00:46.446Z,24.29
2022-08-09T07:01:07.957Z,24.90
2022-08-09T07:03:39.654Z,25.13
2022-08-09T07:06:18.908Z,25.06
2022-08-09T07:08:46.668Z,24.85
2022-08-09T07:11:17.650Z,24.40
2022-08-09T07:14:04.813Z,24.82
2022-08-09T07:16:41.316Z,24.67
2022-08-09T07:19:15.345Z,24.77
2022-08-09T07:21:55.324Z,25.23
2022-08-09T07:24:32.792Z,25.15
2022-08-09T07:27:11.072Z,25.05
2022-08-09T07:29:56.953Z,25.81
2022-08-09T07:32:32.291Z,25.94
2022-08-09T07:35:00.999Z,26.11
2022-08-09T07:37:29.540Z,25.96
2022-08-09T07:39:56.125Z,25.94
2022-08-09T07:42:32.441Z,26.15
2022-08-09T07:45:06.436Z,26.74
2022-08-09T07:48:00.570Z,26.97
2022-08-09T07:50:33.055Z,27.15
2022-08-09T07:53:03.042Z,27.60
2022-08-09T07:55:41.651Z,27.31
2022-08-09T07:58:17.920Z,28.04
2022-08-09T08:00:55.947Z,27.51
2022-08-09T08:03:31.589Z,27.36
2022-08-09T08:05:58.596Z,27.89
2022-08-09T08:09:01.779Z,28.01
2022-08-09T08:12:10.009Z,28.34
2022-08-09T08:13:58.886Z,28.24
2022-08-09T08:16:31.602Z,28.57
2022-08-09T08:18:59.378Z,27.81
2022-08-09T08:21:26.671Z,28.34
2022-08-09T08:23:55.603Z,29.01
2022-08-09T08:26:26.639Z,29.06
2022-08-09T08:29:08.973Z,28.86
2022-08-09T08:32:02.766Z,28.96
2022-08-09T08:34:25.244Z,29.14
2022-08-09T08:36:52.473Z,29.69
2022-08-09T08:39:19.062Z,30.00
2022-08-09T08:41:51.893Z,29.73
2022-08-09T08:44:26.971Z,29.95
2022-08-09T08:46:59.644Z,30.52
2022-08-09T08:49:38.669Z,30.59
2022-08-09T08:52:34.943Z,30.14
2022-08-09T08:55:03.979Z,30.64
2022-08-09T08:57:35.265Z,30.43
2022-08-09T09:00:08.237Z,29.68
2022-08-09T09:02:49.991Z,30.32
2022-08-09T09:05:57.636Z,30.95
2022-08-09T09:08:29.934Z,30.81
2022-08-09T09:11:01.283Z,30.67
2022-08-09T09:13:41.901Z,30.95
2022-08-09T09:16:15.423Z,31.57
2022-08-09T09:18:48.055Z,31.02
2022-08-09T09:21:14.778Z,30.93
2022-08-09T09:23:49.823Z,31.52
2022-08-09T09:26:25.977Z,31.90
2022-08-09T09:29:03.380Z,31.67
2022-08-09T09:32:06.542Z,31.01
2022-08-09T09:34:23.135Z,31.07
2022-08-09T09:36:53.703Z,31.37
2022-08-09T09:39:23.454Z,32.57
2022-08-09T09:41:54.213Z,32.04
2022-08-09T09:44:33.899Z,31.91
2022-08-09T09:47:21.598Z,32.05
2022-08-09T09:50:15.334Z,31.46
2022-08-09T09:52:53.735Z,31.51
2022-08-09T09:55:27.942Z,32.03
2022-08-09T09:58:15.633Z,33.17
2022-08-09T10:00:58.850Z,33.27
2022-08-09T10:03:43.868Z,32.97
2022-08-09T10:06:12.543Z,32.80
2022-08-09T10:08:54.385Z,33.03
2022-08-09T10:12:12.020Z,32.67
2022-08-09T10:14:27.756Z,33.43
2022-08-09T10:17:11.564Z,32.43
2022-08-09T10:19:45.738Z,32.29
2022-08-09T10:22:12.781Z,31.96
2022-08-09T10:24:40.856Z,32.53
2022-08-09T10:27:17.303Z,32.26
2022-08-09T10:30:43.846Z,32.86
2022-08-09T10:32:42.743Z,33.18
2022-08-09T10:35:11.120Z,33.50
2022-08-09T10:37:39.931Z,33.96
2022-08-09T10:40:12.238Z,32.99
2022-08-09T10:42:55.790Z,33.12
2022-08-09T10:45:23.457Z,33.24
2022-08-09T10:48:30.634Z,33.32
2022-08-09T10:51:12.281Z,33.52
2022-08-09T10:54:04.955Z,33.63
2022-08-09T10:56:34.513Z,32.97
2022-08-09T10:59:31.039Z,32.24
2022-08-09T11:03:15.335Z,32.59
2022-08-09T11:05:13.182Z,33.15
2022-08-09T11:07:56.934Z,32.52
2022-08-09T11:10:56.607Z,31.87
2022-08-09T11:13:50.607Z,33.36
2022-08-09T11:16:40.995Z,34.34
2022-08-09T11:19:10.463Z,34.83
2022-08-09T11:21:57.390Z,33.43
2022-08-09T11:24:57.965Z,32.83
2022-08-09T11:28:02.792Z,32.60
2022-08-09T11:30:32.299Z,33.10
2022-08-09T11:33:11.669Z,33.62
2022-08-09T11:35:50.001Z,33.72
2022-08-09T11:38:32.654Z,33.05
2022-08-09T11:41:13.713Z,33.57
2022-08-09T11:43:43.397Z,33.71
2022-08-09T11:46:10.551Z,33.53
2022-08-09T11:48:52.209Z,32.52
2022-08-09T11:53:00.959Z,33.22
2022-08-09T11:54:13.675Z,32.95
2022-08-09T11:56:42.398Z,33.56
2022-08-09T11:59:30.292Z,33.33
2022-08-09T12:02:34.565Z,33.02
2022-08-09T12:04:47.073Z,32.79
2022-08-09T12:07:14.401Z,33.10
2022-08-09T12:09:51.043Z,33.49
2022-08-09T12:12:20.426Z,33.19
2022-08-09T12:15:07.186Z,34.23
2022-08-09T12:17:44.434Z,34.90
2022-08-09T12:20:22.246Z,34.69
2022-08-09T12:23:00.018Z,35.13
2022-08-09T12:29:11.489Z,32.59
2022-08-09T12:31:31.109Z,32.41
2022-08-09T12:34:13.455Z,32.91
2022-08-09T12:36:52.178Z,33.51
2022-08-09T12:39:26.021Z,33.80
2022-08-09T12:41:54.436Z,33.79
2022-08-09T12:44:24.558Z,33.82
2022-08-09T12:46:51.541Z,33.48
2022-08-09T12:49:21.073Z,32.78
2022-08-09T12:52:01.315Z,33.38
2022-08-09T12:54:29.744Z,32.76
2022-08-09T12:56:58.705Z,32.91
2022-08-09T12:59:57.721Z,32.55
2022-08-09T13:02:11.978Z,32.60
2022-08-09T13:04:41.722Z,33.27
2022-08-09T13:07:16.867Z,33.74
2022-08-09T13:09:55.381Z,34.48
2022-08-09T13:12:27.151Z,34.94
2022-08-09T13:15:04.543Z,34.09
2022-08-09T13:18:02.861Z,32.36
2022-08-09T13:20:37.194Z,31.70
2022-08-09T13:24:11.829Z,30.77
2022-08-09T13:25:54.758Z,29.82
2022-08-09T13:28:33.817Z,29.42
2022-08-09T13:32:17.165Z,28.94
2022-08-09T13:33:58.038Z,29.34
2022-08-09T13:36:41.468Z,30.17
2022-08-09T13:39:34.355Z,31.26
2022-08-09T13:42:11.995Z,31.35
2022-08-09T13:44:42.063Z,31.67
2022-08-09T13:47:27.705Z,31.78
2022-08-09T13:50:04.321Z,31.85
2022-08-09T13:52:39.590Z,30.73
2022-08-09T13:55:13.672Z,29.99
2022-08-09T13:57:55.992Z,29.51
2022-08-09T14:00:28.297Z,29.36
2022-08-09T14:03:03.485Z,29.64
2022-08-09T14:06:00.291Z,29.97
2022-08-09T14:08:29.827Z,30.06
2022-08-09T14:10:56.798Z,30.70
2022-08-09T14:13:28.205Z,30.87
2022-08-09T14:16:16.794Z,31.06
2022-08-09T14:18:49.132Z,30.39
2022-08-09T14:21:20.058Z,30.00
2022-08-09T14:23:54.708Z,30.00
2022-08-09T14:26:25.380Z,29.75
2022-08-09T14:28:59.014Z,29.04
2022-08-09T14:31:36.425Z,28.70
2022-08-09T14:34:13.099Z,28.97
2022-08-09T14:36:44.902Z,29.30
2022-08-09T14:39:11.617Z,29.54
2022-08-09T14:41:41.851Z,29.64
2022-08-09T14:44:09.572Z,29.42
2022-08-09T14:47:04.633Z,29.44
2022-08-09T14:49:26.307Z,28.57
2022-08-09T14:51:58.782Z,28.46
2022-08-09T14:54:28.162Z,28.20
2022-08-09T14:56:58.867Z,28.01
2022-08-09T14:59:28.537Z,28.07
2022-08-09T15:01:55.848Z,28.40
2022-08-09T15:04:23.567Z,28.54
2022-08-09T15:06:51.373Z,28.72
2022-08-09T15:09:52.041Z,28.98
2022-08-09T15:12:07.762Z,28.94
2022-08-09T15:14:38.152Z,28.92
2022-08-09T15:17:08.920Z,28.81
2022-08-09T15:19:36.619Z,28.53
2022-08-09T15:22:04.091Z,28.60
2022-08-09T15:24:32.425Z,28.08
2022-08-09T15:26:59.418Z,27.82
2022-08-09T15:30:58.205Z,27.96
2022-08-09T15:32:28.448Z,27.53
2022-08-09T15:34:59.894Z,27.41
2022-08-09T15:37:56.943Z,27.59
2022-08-09T15:40:32.187Z,27.30
2022-08-09T15:43:01.891Z,27.54
2022-08-09T15:45:51.953Z,27.78
2022-08-09T15:48:28.821Z,27.81
2022-08-09T15:50:56.709Z,27.94
2022-08-09T15:54:05.834Z,28.25
2022-08-09T15:56:23.432Z,28.16
2022-08-09T15:58:57.052Z,27.98
2022-08-09T16:01:23.612Z,28.08
2022-08-09T16:03:51.203Z,27.94
2022-08-09T16:06:32.361Z,27.81
2022-08-09T16:09:04.879Z,28.09
2022-08-09T16:11:33.335Z,28.15
2022-08-09T16:14:05.508Z,27.90
2022-08-09T16:16:37.829Z,27.74
2022-08-09T16:19:09.674Z,27.77
2022-08-09T16:21:37.335Z,27.62
2022-08-09T16:24:13.076Z,27.71
2022-08-09T16:26:56.765Z,27.91
2022-08-09T16:29:37.948Z,27.77
2022-08-09T16:32:33.443Z,27.75
2022-08-09T16:34:58.384Z,27.67
2022-08-09T16:37:55.658Z,27.71
2022-08-09T16:40:29.963Z,27.61
2022-08-09T16:43:02.491Z,27.54
2022-08-09T16:45:29.167Z,27.44
2022-08-09T16:48:39.116Z,27.44
2022-08-09T16:50:59.071Z,27.38
2022-08-09T16:53:26.846Z,27.36
2022-08-09T16:56:03.656Z,27.20
2022-08-09T16:58:36.784Z,27.10
2022-08-09T17:01:04.603Z,26.97
2022-08-09T17:03:31.350Z,26.92
2022-08-09T17:06:06.656Z,26.95
2022-08-09T17:08:45.796Z,26.91
2022-08-09T17:11:41.205Z,26.96
2022-08-09T17:14:16.004Z,26.97
2022-08-09T17:16:56.073Z,26.86
2022-08-09T17:19:22.527Z,26.65
2022-08-09T17:21:55.575Z,26.72
2022-08-09T17:24:27.960Z,26.67
2022-08-09T17:26:56.986Z,26.51
2022-08-09T17:29:25.245Z,26.49
2022-08-09T17:32:00.220Z,26.31
2022-08-09T17:35:04.142Z,26.21
2022-08-09T17:37:19.907Z,26.34
2022-08-09T17:39:52.666Z,26.36
2022-08-09T17:42:40.791Z,26.28
2022-08-09T17:45:15.985Z,26.11
2022-08-09T17:47:55.634Z,26.24
2022-08-09T17:50:36.841Z,26.19
2022-08-09T17:53:10.328Z,26.10
2022-08-09T17:55:49.525Z,26.13
2022-08-09T17:58:19.008Z,26.04
2022-08-09T18:00:47.995Z,25.80
2022-08-09T18:03:15.210Z,25.68
2022-08-09T18:05:44.729Z,25.67
2022-08-09T18:08:13.377Z,25.54
2022-08-09T18:10:40.221Z,25.51
2022-08-09T18:13:38.993Z,25.47
2022-08-09T18:16:08.849Z,25.59
2022-08-09T18:18:36.350Z,25.52
2022-08-09T18:21:23.810Z,25.39
2022-08-09T18:24:09.944Z,25.27
2022-08-09T18:26:46.290Z,25.29
2022-08-09T18:30:37.883Z,24.95
2022-08-09T18:32:05.155Z,25.14
2022-08-09T18:34:35.117Z,24.93
2022-08-09T18:37:10.482Z,24.89
2022-08-09T18:39:53.272Z,24.89
2022-08-09T18:42:19.852Z,24.73
2022-08-09T18:44:47.903Z,24.70
2022-08-09T18:47:17.498Z,24.66
2022-08-09T18:49:47.309Z,24.52
2022-08-09T18:52:15.859Z,24.55
2022-08-09T18:54:52.547Z,24.39
2022-08-09T18:57:22.190Z,24.37
2022-08-09T18:59:55.587Z,24.28
2022-08-09T19:02:30.759Z,24.15
2022-08-09T19:05:04.208Z,24.07
2022-08-09T19:08:04.921Z,24.01
2022-08-09T19:10:37.045Z,23.85
2022-08-09T19:13:20.448Z,23.80
2022-08-09T19:15:51.342Z,23.65
2022-08-09T19:18:33.731Z,23.60
2022-08-09T19:21:05.600Z,23.47
2022-08-09T19:24:32.522Z,23.45
2022-08-09T19:26:22.457Z,23.25
2022-08-09T19:29:01.249Z,23.08
2022-08-09T19:31:30.438Z,22.89
2022-08-09T19:34:21.262Z,22.59
2022-08-09T19:36:53.365Z,22.39
2022-08-09T19:39:43.744Z,22.45
2022-08-09T19:42:08.272Z,22.43
2022-08-09T19:44:35.424Z,22.36
2022-08-09T19:47:02.569Z,22.25
2022-08-09T19:50:08.756Z,22.28
2022-08-09T19:52:25.698Z,22.14
2022-08-09T19:54:52.788Z,22.20
2022-08-09T19:57:19.591Z,22.25
2022-08-09T20:00:05.574Z,22.35
2022-08-09T20:04:09.977Z,22.42
2022-08-09T20:05:23.688Z,22.38
2022-08-09T20:08:00.230Z,22.37
2022-08-09T20:10:36.865Z,22.37
2022-08-09T20:13:06.225Z,22.30
2022-08-09T20:16:36.762Z,22.22
2022-08-09T20:18:20.343Z,22.19
2022-08-09T20:20:50.511Z,22.25
2022-08-09T20:23:19.429Z,22.21
2022-08-09T20:25:52.253Z,22.10
2022-08-09T20:28:32.027Z,22.06
2022-08-09T20:31:10.738Z,21.97
2022-08-09T20:33:41.038Z,21.81
2022-08-09T20:36:10.964Z,21.75
2022-08-09T20:41:35.033Z,21.47
2022-08-09T20:44:04.977Z,21.39
2022-08-09T20:46:44.624Z,21.39
2022-08-09T20:49:13.112Z,21.27
2022-08-09T20:51:41.991Z,21.33
2022-08-09T20:54:12.929Z,21.26
2022-08-09T20:56:43.613Z,21.35
2022-08-09T20:59:16.854Z,21.36
2022-08-09T21:01:50.546Z,21.38
2022-08-09T21:05:53.363Z,21.40
2022-08-09T21:07:10.924Z,21.43
2022-08-09T21:09:42.053Z,21.45
2022-08-09T21:14:48.369Z,21.58
2022-08-09T21:18:23.636Z,21.49
2022-08-09T21:20:19.564Z,21.61
2022-08-09T21:22:52.447Z,21.54
2022-08-09T21:25:39.117Z,21.50
2022-08-09T21:28:12.245Z,21.42
2022-08-09T21:30:42.939Z,21.47
2022-08-09T21:33:10.419Z,21.42
2022-08-09T21:35:41.006Z,21.35
2022-08-09T21:38:18.975Z,21.31
2022-08-09T21:40:58.045Z,21.35
2022-08-09T21:43:46.690Z,21.28
2022-08-09T21:46:12.031Z,21.20
2022-08-09T21:48:42.456Z,21.27
2022-08-09T21:51:14.053Z,21.24
2022-08-09T21:53:41.476Z,21.26
2022-08-09T21:56:15.107Z,21.20
2022-08-09T21:58:54.720Z,21.24
2022-08-09T22:01:44.985Z,21.17
2022-08-09T22:04:08.028Z,21.15
2022-08-09T22:06:34.469Z,21.03
2022-08-09T22:09:01.457Z,21.06
2022-08-09T22:12:06.034Z,20.88
2022-08-09T22:14:14.995Z,20.80
2022-08-09T22:16:41.563Z,20.65
2022-08-09T22:19:59.163Z,20.59
2022-08-09T22:21:55.190Z,20.55
2022-08-09T22:24:24.907Z,20.53
2022-08-09T22:26:52.387Z,20.47
2022-08-09T22:29:19.813Z,20.42
2022-08-09T22:31:56.347Z,20.40
2022-08-09T22:34:26.319Z,20.28
2022-08-09T22:36:54.824Z,20.34
2022-08-09T22:39:55.978Z,20.38
2022-08-09T22:42:21.364Z,20.49
2022-08-09T22:45:02.273Z,20.48
2022-08-09T22:48:14.137Z,20.33
2022-08-09T22:50:25.669Z,20.30
2022-08-09T22:52:54.687Z,20.26
2022-08-09T22:55:24.345Z,19.99
2022-08-09T22:57:59.887Z,19.74
2022-08-09T23:00:29.265Z,19.53
2022-08-09T23:02:56.277Z,19.33
2022-08-09T23:05:22.866Z,19.30
2022-08-09T23:08:22.207Z,19.18
2022-08-09T23:10:50.405Z,18.98
2022-08-09T23:13:16.875Z,18.89
2022-08-09T23:15:43.381Z,18.80
2022-08-09T23:18:29.816Z,18.76
2022-08-09T23:20:56.231Z,18.67
2022-08-09T23:23:22.710Z,18.54
2022-08-09T23:25:49.356Z,18.43
2022-08-09T23:28:16.274Z,18.14
2022-08-09T23:30:51.633Z,18.08
2022-08-09T23:33:20.643Z,17.96
2022-08-09T23:36:04.940Z,17.86
2022-08-09T23:38:33.971Z,17.82
2022-08-09T23:41:01.698Z,17.83
2022-08-09T23:43:28.155Z,17.77
2022-08-09T23:45:54.601Z,17.70
2022-08-09T23:48:21.079Z,17.68
2022-08-09T23:50:47.578Z,17.64
2022-08-09T23:53:14.018Z,17.56
2022-08-09T23:55:46.225Z,17.52
2022-08-09T23:58:25.790Z,17.49
